Time;durP1;ratioP1;P1;durP2;ratioP2;P2;SDS_P1;SDS_P2;PMS_P1;PMS_P2;Temp;Humidity;BMP_temperature;BMP_pressure;BME280_temperature;BME280_humidity;BME280_pressure;Samples;Min_cycle;Max_cycle;Signal;HPM_P1;HPM_P2
2020/12/26 00:01:30;;;;;;;15.32;8.68;;;;;;;9.77;62.08;94174.06;4194492;28;20504;-69
2020/12/26 00:03:32;;;;;;;12.50;8.07;;;;;;;9.77;61.66;94174.88;4193438;28;20055;-70
2020/12/26 00:05:33;;;;;;;15.07;8.25;;;;;;;9.74;61.87;94172.59;4186303;28;20698;-69
2020/12/26 00:07:34;;;;;;;15.48;8.70;;;;;;;9.69;62.29;94182.75;4193488;28;20629;-69
2020/12/26 00:09:35;;;;;;;10.65;7.13;;;;;;;9.72;62.21;94182.41;4174316;28;20478;-70
2020/12/26 00:11:36;;;;;;;12.18;7.47;;;;;;;9.76;61.89;94183.69;4188112;28;20105;-68
2020/12/26 00:13:38;;;;;;;12.60;8.30;;;;;;;9.78;62.22;94184.34;4192453;28;20066;-69
2020/12/26 00:15:39;;;;;;;14.02;7.47;;;;;;;9.81;61.59;94191.06;4191853;28;20062;-70
2020/12/26 00:17:40;;;;;;;13.70;7.50;;;;;;;9.83;61.44;94189.09;4193730;28;20052;-72
2020/12/26 00:19:41;;;;;;;12.93;7.03;;;;;;;9.75;62.47;94182.06;4193053;28;20060;-69
2020/12/26 00:21:43;;;;;;;12.50;7.35;;;;;;;9.74;62.06;94196.13;4175502;28;20080;-69
2020/12/26 00:23:45;;;;;;;11.77;7.13;;;;;;;9.73;61.90;94196.31;4192855;28;20056;-72
2020/12/26 00:25:47;;;;;;;10.27;6.93;;;;;;;9.74;62.06;94206.59;4158625;28;20056;-71
2020/12/26 00:27:48;;;;;;;12.98;6.93;;;;;;;9.78;62.31;94200.03;4192676;28;20049;-69
2020/12/26 00:29:49;;;;;;;10.00;7.00;;;;;;;9.80;62.25;94205.13;4192416;28;20083;-71
2020/12/26 00:31:50;;;;;;;9.95;6.93;;;;;;;9.78;62.33;94207.09;4193450;28;20056;-70
2020/12/26 00:33:51;;;;;;;19.85;8.38;;;;;;;9.73;62.33;94207.59;4191857;28;20068;-69
2020/12/26 00:35:53;;;;;;;10.88;6.95;;;;;;;9.71;61.94;94200.88;4175148;28;20049;-69
2020/12/26 00:37:54;;;;;;;13.13;7.43;;;;;;;9.66;61.93;94219.69;4175614;28;20653;-70
2020/12/26 00:39:55;;;;;;;9.93;6.78;;;;;;;9.67;62.33;94221.31;4173576;28;20099;-68
2020/12/26 00:41:56;;;;;;;11.43;7.32;;;;;;;9.63;62.41;94210.34;4191377;28;20059;-68
2020/12/26 00:43:58;;;;;;;10.73;6.68;;;;;;;9.49;62.51;94213.66;4191811;28;20044;-68
2020/12/26 00:45:59;;;;;;;10.75;7.47;;;;;;;9.50;62.00;94212.66;4192597;28;20110;-70
2020/12/26 00:48:00;;;;;;;11.75;7.55;;;;;;;9.43;62.49;94203.84;4192380;28;20435;-68
2020/12/26 00:50:02;;;;;;;11.30;7.40;;;;;;;9.40;63.01;94199.78;4193120;28;20418;-69
2020/12/26 00:52:03;;;;;;;13.55;7.10;;;;;;;9.14;64.30;94214.78;4173129;28;20048;-68
2020/12/26 00:54:04;;;;;;;11.27;6.82;;;;;;;9.15;64.13;94216.44;4173405;28;20045;-69
2020/12/26 00:56:05;;;;;;;11.57;6.85;;;;;;;9.19;64.42;94220.34;4192472;28;20127;-69
2020/12/26 00:58:07;;;;;;;11.93;7.38;;;;;;;9.26;63.55;94229.16;4192708;28;20066;-68
2020/12/26 01:00:08;;;;;;;10.98;6.68;;;;;;;9.18;63.59;94221.31;4190623;28;20048;-68
2020/12/26 01:02:10;;;;;;;11.00;6.75;;;;;;;9.05;64.35;94210.53;4192740;28;20077;-70
2020/12/26 01:04:12;;;;;;;9.88;7.20;;;;;;;9.12;64.46;94221.97;4191501;28;20065;-70
2020/12/26 01:06:16;;;;;;;10.65;6.90;;;;;;;9.09;65.65;94206.63;4191426;28;20052;-69
2020/12/26 01:08:17;;;;;;;10.32;7.05;;;;;;;9.14;65.37;94209.56;4176911;28;20486;-69
2020/12/26 01:10:18;;;;;;;12.65;7.35;;;;;;;9.17;65.10;94224.94;4175916;28;20423;-69
2020/12/26 01:12:19;;;;;;;9.77;6.93;;;;;;;9.14;65.91;94220.84;4193995;28;20073;-69
2020/12/26 01:14:21;;;;;;;11.48;7.40;;;;;;;9.19;65.28;94225.56;4185910;28;20530;-68
2020/12/26 01:16:22;;;;;;;8.68;6.70;;;;;;;9.28;65.03;94221.19;4191616;28;20079;-69
2020/12/26 01:18:23;;;;;;;10.95;7.32;;;;;;;9.30;64.94;94208.75;4189579;28;20533;-68
2020/12/26 01:20:24;;;;;;;10.60;6.93;;;;;;;9.31;65.01;94211.19;4173750;28;20483;-68
2020/12/26 01:22:26;;;;;;;12.00;6.95;;;;;;;9.33;65.12;94206.63;4192254;28;20135;-70
2020/12/26 01:24:27;;;;;;;10.40;6.78;;;;;;;9.34;65.32;94210.88;4176291;28;20319;-69
2020/12/26 01:26:28;;;;;;;9.50;6.43;;;;;;;9.29;66.35;94209.72;4190682;28;20048;-68
2020/12/26 01:28:29;;;;;;;10.95;6.82;;;;;;;9.29;65.52;94213.19;4191610;28;20553;-70
2020/12/26 01:30:31;;;;;;;10.45;7.45;;;;;;;9.31;66.10;94207.75;4185904;28;20057;-71
2020/12/26 01:32:32;;;;;;;9.90;6.57;;;;;;;9.33;65.66;94203.19;4173224;28;20059;-68
2020/12/26 01:34:34;;;;;;;13.32;7.15;;;;;;;9.35;64.83;94203.84;4174338;28;20056;-69
2020/12/26 01:36:35;;;;;;;11.80;7.78;;;;;;;9.35;64.50;94204.66;4191141;28;20052;-69
2020/12/26 01:38:37;;;;;;;11.55;7.28;;;;;;;9.38;65.01;94201.72;4191767;28;20317;-68
2020/12/26 01:40:38;;;;;;;9.95;6.78;;;;;;;9.37;64.88;94196.66;4173843;28;20049;-69
2020/12/26 01:43:14;;;;;;;9.98;7.70;;;;;;;9.40;65.06;94188.50;4191463;28;20048;-69
2020/12/26 01:45:15;;;;;;;10.95;7.97;;;;;;;9.43;63.92;94188.16;4172946;28;20049;-68
2020/12/26 01:47:16;;;;;;;13.90;7.22;;;;;;;9.38;64.59;94188.66;4168311;28;20044;-69
2020/12/26 01:49:20;;;;;;;11.13;7.40;;;;;;;9.36;64.80;94188.00;4190583;28;20129;-69
2020/12/26 01:51:21;;;;;;;10.60;7.07;;;;;;;9.36;64.67;94188.00;4192323;28;20532;-68
2020/12/26 01:53:24;;;;;;;9.02;7.32;;;;;;;9.39;64.46;94177.22;4177375;28;20136;-68
2020/12/26 01:55:25;;;;;;;10.73;7.32;;;;;;;9.40;64.60;94173.63;4191243;28;20059;-72
2020/12/26 01:57:34;;;;;;;11.75;7.50;;;;;;;9.45;64.81;94175.75;4191174;28;20420;-70
2020/12/26 01:59:35;;;;;;;15.15;7.15;;;;;;;9.46;64.28;94185.22;4190270;28;20550;-71
2020/12/26 02:01:41;;;;;;;16.45;7.93;;;;;;;9.42;64.71;94181.28;4190840;28;20048;-71
2020/12/26 02:03:42;;;;;;;11.13;8.23;;;;;;;9.42;64.33;94179.50;4192296;28;20052;-70
2020/12/26 02:05:43;;;;;;;11.80;7.35;;;;;;;9.45;64.73;94177.56;4173109;28;20048;-72
2020/12/26 02:07:46;;;;;;;11.85;7.97;;;;;;;9.47;65.14;94175.59;4191349;28;20420;-71
2020/12/26 02:09:47;;;;;;;10.85;7.97;;;;;;;9.46;64.95;94177.38;4178708;28;20052;-71
2020/12/26 02:11:48;;;;;;;10.32;7.43;;;;;;;9.42;64.89;94179.50;4201220;28;20574;-71
2020/12/26 02:13:50;;;;;;;10.38;7.43;;;;;;;9.38;65.58;94175.59;4189910;28;20056;-72
2020/12/26 02:16:34;;;;;;;14.95;7.72;;;;;;;9.36;65.78;94184.59;4196340;28;20511;-71
2020/12/26 02:18:36;;;;;;;10.93;7.68;;;;;;;9.34;66.12;94187.34;4189547;28;20079;-69
2020/12/26 02:20:37;;;;;;;15.98;8.15;;;;;;;9.30;66.09;94183.44;4190597;28;20126;-71
2020/12/26 02:22:39;;;;;;;9.88;7.65;;;;;;;9.27;66.13;94183.78;4174367;28;20104;-72
2020/12/26 02:24:40;;;;;;;14.57;7.85;;;;;;;9.29;65.51;94191.44;4191799;28;20045;-70
2020/12/26 02:26:41;;;;;;;11.70;7.93;;;;;;;9.32;66.02;94198.97;4191237;28;20083;-71
2020/12/26 02:28:43;;;;;;;12.30;8.30;;;;;;;9.33;66.73;94187.50;4190060;28;20045;-71
2020/12/26 02:30:44;;;;;;;11.50;7.95;;;;;;;9.28;66.48;94190.63;4172875;28;20068;-70
2020/12/26 02:32:47;;;;;;;11.48;7.97;;;;;;;9.15;67.46;94190.28;4163210;28;20063;-72
2020/12/26 02:34:48;;;;;;;14.52;8.70;;;;;;;8.81;68.13;94183.38;4186715;28;20165;-69
2020/12/26 02:36:49;;;;;;;15.02;8.93;;;;;;;8.64;69.14;94181.72;4188166;28;20132;-69
2020/12/26 02:38:50;;;;;;;12.75;8.52;;;;;;;8.72;69.23;94182.56;4195046;28;20056;-71
2020/12/26 02:40:52;;;;;;;12.05;8.43;;;;;;;8.68;69.90;94170.00;4190786;28;20590;-70
2020/12/26 02:42:53;;;;;;;12.98;9.23;;;;;;;8.62;69.45;94184.50;4180376;28;20044;-70
2020/12/26 02:44:54;;;;;;;11.65;8.50;;;;;;;8.69;69.88;94190.72;4172100;28;20186;-72
2020/12/26 02:46:56;;;;;;;10.50;7.07;;;;;;;8.63;71.49;94201.00;4179758;28;20099;-70
2020/12/26 02:48:58;;;;;;;10.60;7.13;;;;;;;8.43;74.50;94193.41;4191318;28;20060;-69
2020/12/26 02:50:59;;;;;;;9.15;7.13;;;;;;;8.23;76.22;94205.06;4187980;28;20056;-70
2020/12/26 02:53:00;;;;;;;10.00;7.53;;;;;;;8.26;76.07;94205.56;4201390;28;20115;-70
2020/12/26 02:55:01;;;;;;;12.05;7.25;;;;;;;8.18;76.51;94210.75;4187098;28;20492;-70
2020/12/26 02:57:04;;;;;;;9.77;7.47;;;;;;;8.06;76.98;94215.41;4190775;28;20124;-70
2020/12/26 02:59:07;;;;;;;10.98;8.07;;;;;;;8.00;77.29;94224.69;4203647;28;20059;-68
2020/12/26 03:01:08;;;;;;;10.95;8.38;;;;;;;7.83;78.41;94224.72;4191072;28;20636;-70
2020/12/26 03:03:10;;;;;;;11.05;8.85;;;;;;;7.62;79.56;94219.91;4162603;28;20079;-71
2020/12/26 03:05:14;;;;;;;11.60;8.52;;;;;;;7.59;79.89;94216.63;4181984;28;20041;-72
2020/12/26 03:07:15;;;;;;;10.45;8.52;;;;;;;7.70;79.38;94214.72;4188212;28;20472;-71
2020/12/26 03:09:16;;;;;;;10.52;8.32;;;;;;;7.67;79.31;94212.41;4190164;28;20475;-70
2020/12/26 03:11:17;;;;;;;16.17;8.65;;;;;;;7.73;78.56;94204.81;4203504;28;20047;-70
2020/12/26 03:13:18;;;;;;;12.32;8.55;;;;;;;7.88;78.15;94197.22;4175208;28;20045;-69
2020/12/26 03:15:21;;;;;;;9.55;7.90;;;;;;;7.97;77.49;94205.91;4189316;28;20060;-69
2020/12/26 03:17:23;;;;;;;10.23;8.68;;;;;;;7.70;78.49;94215.53;4168474;28;20290;-70
2020/12/26 03:19:25;;;;;;;11.07;8.98;;;;;;;7.83;77.45;94209.09;4192728;28;20121;-69
2020/12/26 03:21:26;;;;;;;9.77;8.35;;;;;;;7.98;76.50;94218.00;4185340;28;20045;-69
2020/12/26 03:23:27;;;;;;;11.15;8.63;;;;;;;8.09;76.27;94219.53;4180603;28;20199;-69
2020/12/26 03:25:28;;;;;;;10.63;8.82;;;;;;;8.19;76.01;94215.81;4198849;28;20182;-70
2020/12/26 03:27:29;;;;;;;9.63;7.32;;;;;;;8.34;75.12;94223.03;4192679;28;20049;-72
2020/12/26 03:29:30;;;;;;;11.45;8.40;;;;;;;8.40;74.39;94227.63;4187960;28;20066;-69
2020/12/26 03:31:32;;;;;;;11.07;9.15;;;;;;;8.28;74.67;94226.28;4175780;28;20435;-70
2020/12/26 03:33:33;;;;;;;11.15;9.00;;;;;;;8.33;74.88;94231.84;4193147;28;20140;-70
2020/12/26 03:35:34;;;;;;;10.00;7.63;;;;;;;8.38;74.61;94224.34;4198875;28;20703;-76
2020/12/26 03:37:36;;;;;;;13.00;8.40;;;;;;;8.23;74.85;94220.72;4169354;28;20057;-78
2020/12/26 03:39:38;;;;;;;10.10;8.90;;;;;;;8.02;76.30;94223.69;4167431;28;20115;-77
2020/12/26 03:41:39;;;;;;;13.27;9.35;;;;;;;7.71;77.27;94225.00;4175752;28;20053;-77
2020/12/26 03:43:40;;;;;;;13.18;9.88;;;;;;;7.72;77.04;94224.03;4198209;28;20051;-77
2020/12/26 03:45:41;;;;;;;10.05;8.32;;;;;;;7.79;76.98;94230.25;4207803;28;20048;-77
2020/12/26 03:47:42;;;;;;;10.55;8.60;;;;;;;7.95;76.13;94218.28;4168854;28;20067;-77
2020/12/26 03:49:44;;;;;;;10.18;7.93;;;;;;;8.09;75.05;94230.75;4210264;28;20547;-75
2020/12/26 03:51:45;;;;;;;10.57;8.32;;;;;;;8.22;74.99;94225.13;4195254;28;20053;-77
2020/12/26 03:53:46;;;;;;;11.15;8.68;;;;;;;8.33;74.43;94227.44;4180053;28;20332;-77
2020/12/26 03:55:48;;;;;;;9.80;7.85;;;;;;;8.44;73.48;94221.16;4197649;28;20110;-75
2020/12/26 03:57:49;;;;;;;10.68;8.77;;;;;;;8.55;72.93;94225.28;4193797;28;20052;-76
2020/12/26 03:59:50;;;;;;;9.68;8.30;;;;;;;8.61;73.50;94222.84;4197932;28;20538;-76
2020/12/26 04:01:52;;;;;;;10.93;7.97;;;;;;;8.68;72.77;94211.78;4196481;28;20522;-76
2020/12/26 04:03:53;;;;;;;10.35;8.95;;;;;;;8.69;72.58;94210.78;4178235;28;20507;-76
2020/12/26 04:05:54;;;;;;;11.15;7.90;;;;;;;8.66;72.48;94211.91;4197592;28;20048;-76
2020/12/26 04:07:55;;;;;;;10.10;8.55;;;;;;;8.68;72.84;94215.19;4183753;28;20048;-77
2020/12/26 04:09:57;;;;;;;11.57;8.73;;;;;;;8.66;72.89;94216.34;4180767;28;20503;-75
2020/12/26 04:11:58;;;;;;;10.43;8.20;;;;;;;8.70;72.73;94215.03;4186592;28;20044;-78
2020/12/26 04:13:59;;;;;;;8.45;7.55;;;;;;;8.73;72.37;94218.16;4158701;28;20123;-77
2020/12/26 04:16:00;;;;;;;9.73;8.18;;;;;;;8.75;72.41;94210.16;4187754;28;20048;-76
2020/12/26 04:18:01;;;;;;;9.27;7.60;;;;;;;8.74;71.94;94213.75;4163754;28;20190;-77
2020/12/26 04:20:03;;;;;;;9.45;7.50;;;;;;;8.75;71.94;94215.38;4193195;28;20052;-78
2020/12/26 04:22:05;;;;;;;8.70;7.10;;;;;;;8.72;72.10;94216.50;4175314;28;20048;-78
2020/12/26 04:24:06;;;;;;;13.32;9.45;;;;;;;8.68;72.39;94209.16;4186920;28;20057;-77
2020/12/26 04:26:08;;;;;;;17.17;11.32;;;;;;;8.64;72.23;94200.00;4192196;28;20419;-77
2020/12/26 04:28:11;;;;;;;10.80;8.32;;;;;;;8.62;72.26;94200.16;4175091;28;20045;-79
2020/12/26 04:30:12;;;;;;;11.82;9.88;;;;;;;8.62;72.74;94197.53;4175776;28;20060;-77
2020/12/26 04:32:13;;;;;;;9.20;7.38;;;;;;;8.66;72.08;94205.88;4175073;28;20501;-78
2020/12/26 04:34:14;;;;;;;9.70;7.45;;;;;;;8.67;72.29;94197.06;4175564;28;20052;-78
2020/12/26 04:36:16;;;;;;;8.32;6.95;;;;;;;8.70;72.50;94197.56;4174365;28;20516;-76
2020/12/26 04:38:18;;;;;;;9.60;7.18;;;;;;;8.71;71.87;94199.22;4193861;28;20048;-76
2020/12/26 04:40:21;;;;;;;10.35;6.95;;;;;;;8.73;71.56;94191.19;4175663;28;20047;-79
2020/12/26 04:42:22;;;;;;;7.82;6.35;;;;;;;8.75;71.84;94190.06;4159241;28;20122;-77
2020/12/26 04:44:24;;;;;;;9.57;6.80;;;;;;;8.77;71.86;94192.53;4190979;28;20048;-69
2020/12/26 04:46:27;;;;;;;10.65;6.70;;;;;;;8.76;71.52;94196.13;4177990;28;20045;-68
2020/12/26 04:48:31;;;;;;;8.20;6.13;;;;;;;8.71;71.48;94187.94;4175619;28;20134;-67
2020/12/26 04:50:33;;;;;;;8.15;6.65;;;;;;;8.69;71.53;94176.84;4173309;28;20492;-68
2020/12/26 04:52:36;;;;;;;7.18;6.03;;;;;;;8.60;71.45;94176.84;4188562;28;20049;-70
2020/12/26 04:54:42;;;;;;;9.30;6.18;;;;;;;8.60;72.04;94186.44;4192345;28;20048;-68
2020/12/26 04:56:44;;;;;;;7.80;6.30;;;;;;;8.55;71.68;94183.50;4194792;28;20796;-69
2020/12/26 04:58:48;;;;;;;8.93;5.78;;;;;;;8.55;71.89;94188.72;4170754;28;20480;-69
2020/12/26 05:00:49;;;;;;;;;;;;;;;8.54;72.57;94185.31;4196570;28;20048;-68
2020/12/26 05:02:52;;;;;;;8.10;6.38;;;;;;;8.58;72.12;94194.44;4176246;28;20320;-69
2020/12/26 05:04:54;;;;;;;9.02;6.05;;;;;;;8.59;71.99;94193.47;4174251;28;20189;-68
2020/12/26 05:06:55;;;;;;;8.40;6.82;;;;;;;8.54;72.23;94203.56;4173031;28;20044;-68
2020/12/26 05:08:57;;;;;;;8.45;6.38;;;;;;;8.56;71.90;94195.56;4194872;28;20055;-68
2020/12/26 05:10:59;;;;;;;9.07;6.00;;;;;;;8.65;71.70;94199.00;4170345;28;20045;-69
2020/12/26 05:13:01;;;;;;;7.78;5.78;;;;;;;8.69;71.42;94195.09;4186380;28;20055;-69
2020/12/26 05:15:03;;;;;;;7.85;6.13;;;;;;;8.72;71.27;94197.41;4168193;28;20133;-69
2020/12/26 05:17:04;;;;;;;7.72;6.40;;;;;;;8.53;72.30;94198.50;4190288;28;20060;-69
2020/12/26 05:19:08;;;;;;;15.43;7.00;;;;;;;8.33;72.86;94206.56;4191817;28;20482;-69
2020/12/26 05:21:09;;;;;;;7.75;6.32;;;;;;;8.31;72.71;94200.69;4169262;28;20139;-69
2020/12/26 05:23:12;;;;;;;7.88;6.63;;;;;;;8.20;73.10;94198.38;4187180;28;20441;-69
2020/12/26 05:25:13;;;;;;;9.55;6.57;;;;;;;8.02;73.87;94189.78;4162071;28;20049;-68
2020/12/26 05:27:15;;;;;;;8.80;6.82;;;;;;;8.06;74.43;94209.38;4178620;28;20327;-69
2020/12/26 05:29:19;;;;;;;9.38;6.63;;;;;;;8.15;73.70;94204.06;4156322;28;20053;-69
2020/12/26 05:31:23;;;;;;;9.73;6.55;;;;;;;8.12;73.66;94191.31;4190784;28;20048;-70
2020/12/26 05:33:29;;;;;;;10.38;6.72;;;;;;;8.22;73.37;94196.41;4191372;28;20048;-69
2020/12/26 05:35:50;;;;;;;8.00;6.68;;;;;;;8.30;72.92;94206.91;4192171;28;20389;-68
2020/12/26 05:37:51;;;;;;;7.70;6.50;;;;;;;8.42;72.82;94196.19;4173656;28;20049;-70
2020/12/26 05:39:57;;;;;;;9.48;6.28;;;;;;;8.37;72.07;94200.06;4178006;28;20057;-69
2020/12/26 05:41:59;;;;;;;7.68;6.07;;;;;;;8.41;72.52;94213.66;4190738;28;20080;-69
2020/12/26 05:44:02;;;;;;;8.38;6.32;;;;;;;8.40;72.54;94207.59;4171860;28;20132;-69
2020/12/26 05:46:03;;;;;;;8.27;6.00;;;;;;;8.41;71.88;94205.81;4157226;28;20099;-69
2020/12/26 05:48:11;;;;;;;7.85;6.20;;;;;;;8.46;72.32;94211.38;4191925;28;20279;-70
2020/12/26 05:50:24;;;;;;;9.90;6.30;;;;;;;8.49;71.83;94208.44;4185533;28;20385;-69
2020/12/26 05:52:29;;;;;;;8.30;6.70;;;;;;;8.53;71.67;94204.53;4188949;28;20395;-69
2020/12/26 05:54:31;;;;;;;8.73;6.80;;;;;;;8.57;71.98;94200.63;4189756;28;20060;-69
2020/12/26 05:56:32;;;;;;;11.05;6.82;;;;;;;8.56;71.51;94211.22;4190490;28;20052;-68
2020/12/26 05:58:41;;;;;;;9.35;7.10;;;;;;;8.53;71.66;94214.16;4190780;28;20056;-69
2020/12/26 06:00:43;;;;;;;8.48;6.80;;;;;;;8.52;71.93;94215.16;4173408;28;20083;-69
2020/12/26 06:02:44;;;;;;;12.75;6.43;;;;;;;8.50;71.72;94212.69;4173684;28;20520;-69
2020/12/26 06:04:51;;;;;;;8.75;6.38;;;;;;;8.52;71.55;94210.75;4191268;28;20123;-70
2020/12/26 06:06:52;;;;;;;8.60;6.80;;;;;;;8.51;71.87;94216.13;4173526;28;20179;-68
2020/12/26 06:08:53;;;;;;;8.38;6.40;;;;;;;8.52;71.74;94223.81;4191056;28;20048;-69
2020/12/26 06:10:56;;;;;;;9.55;7.22;;;;;;;8.54;71.77;94224.47;4191376;28;20278;-69
2020/12/26 06:12:58;;;;;;;9.23;6.88;;;;;;;8.58;71.83;94231.00;4153435;28;20099;-70
2020/12/26 06:14:59;;;;;;;8.45;6.50;;;;;;;8.59;71.54;94237.84;4178469;28;20059;-68
2020/12/26 06:17:01;;;;;;;9.88;6.85;;;;;;;8.64;71.11;94247.00;4171836;28;20045;-69
2020/12/26 06:19:02;;;;;;;10.65;6.80;;;;;;;8.69;71.68;94245.56;4171565;28;20055;-68
2020/12/26 06:21:04;;;;;;;8.00;6.22;;;;;;;8.71;71.03;94246.22;4179702;28;20053;-69
2020/12/26 06:23:06;;;;;;;8.07;6.60;;;;;;;8.75;71.28;94241.47;4173207;28;20131;-70
2020/12/26 06:25:10;;;;;;;8.63;6.70;;;;;;;8.75;71.15;94241.47;4178913;28;20181;-69
2020/12/26 06:27:12;;;;;;;;;;;;;;;8.73;70.57;94235.59;4184758;28;20503;-69
2020/12/26 06:29:16;;;;;;;9.10;7.13;;;;;;;8.73;70.84;94249.50;4171956;28;19943;-68
2020/12/26 06:31:17;;;;;;;;;;;;;;;8.68;71.45;94237.88;4173434;28;20159;-69
2020/12/26 06:33:21;;;;;;;10.48;7.05;;;;;;;8.64;70.88;94247.81;4174495;28;19928;-70
2020/12/26 06:35:23;;;;;;;14.40;7.43;;;;;;;8.65;71.54;94252.06;4165896;28;20064;-69
2020/12/26 06:37:24;;;;;;;10.88;7.25;;;;;;;8.69;71.40;94247.34;4156342;28;20800;-71
2020/12/26 06:39:29;;;;;;;9.38;7.72;;;;;;;8.74;71.41;94245.09;4191390;28;20045;-69
2020/12/26 06:41:31;;;;;;;11.30;7.53;;;;;;;8.44;71.22;94246.44;4186698;28;20507;-69
2020/12/26 06:43:51;;;;;;;8.43;6.80;;;;;;;8.39;72.11;94252.13;4190887;28;20058;-69
2020/12/26 06:45:52;;;;;;;11.18;6.68;;;;;;;8.40;72.41;94248.50;4187077;28;20079;-68
2020/12/26 06:47:53;;;;;;;10.52;6.97;;;;;;;8.41;71.90;94250.19;4173239;28;20051;-77
2020/12/26 06:49:54;;;;;;;8.65;6.88;;;;;;;8.44;72.31;94256.91;4192884;28;20102;-78
2020/12/26 06:51:56;;;;;;;8.73;6.32;;;;;;;8.36;72.08;94250.59;4196226;28;20048;-77
2020/12/26 06:54:01;;;;;;;11.50;7.30;;;;;;;8.37;72.20;94251.44;4168960;28;20061;-78
2020/12/26 06:56:02;;;;;;;9.10;7.10;;;;;;;8.43;71.88;94253.44;4176846;28;20228;-78
2020/12/26 06:58:04;;;;;;;9.30;6.78;;;;;;;8.48;72.34;94245.97;4173993;28;20103;-77
2020/12/26 07:00:25;;;;;;;10.10;7.32;;;;;;;8.53;71.75;94261.16;4176176;28;20052;-77
2020/12/26 07:02:26;;;;;;;8.65;6.65;;;;;;;8.55;71.84;94259.22;4177389;28;20053;-77
2020/12/26 07:04:36;;;;;;;10.35;6.90;;;;;;;8.52;70.98;94255.13;4198051;28;20056;-77
2020/12/26 07:06:38;;;;;;;9.38;6.40;;;;;;;8.58;71.77;94256.28;4177709;28;20128;-79
2020/12/26 07:08:51;;;;;;;10.50;6.70;;;;;;;8.61;71.25;94245.53;4176693;28;20045;-80
2020/12/26 07:10:53;;;;;;;9.95;6.65;;;;;;;8.60;71.30;94234.28;4180803;28;20106;-76
2020/12/26 07:12:55;;;;;;;9.75;7.32;;;;;;;8.54;71.70;94237.50;4172077;28;20467;-76
2020/12/26 07:14:56;;;;;;;9.30;6.97;;;;;;;8.56;71.81;94246.00;4200268;28;20095;-77
2020/12/26 07:17:02;;;;;;;8.65;6.30;;;;;;;8.60;71.04;94251.72;4194549;28;20072;-76
2020/12/26 07:19:25;;;;;;;8.20;5.90;;;;;;;8.63;71.00;94250.59;4187382;28;20044;-78
2020/12/26 07:21:29;;;;;;;8.57;6.13;;;;;;;8.61;70.59;94235.91;4187733;28;20181;-77
2020/12/26 07:23:31;;;;;;;11.00;9.23;;;;;;;8.59;70.82;94242.25;4200943;28;20051;-76
2020/12/26 07:25:32;;;;;;;9.65;7.72;;;;;;;8.54;70.96;94232.28;4194534;28;20516;-78
2020/12/26 07:27:37;;;;;;;9.60;7.10;;;;;;;8.56;71.54;94250.38;4197083;28;20446;-76
2020/12/26 07:29:51;;;;;;;8.85;6.18;;;;;;;8.54;71.10;94245.34;4155564;28;20053;-77
2020/12/26 07:31:54;;;;;;;8.25;6.72;;;;;;;8.51;70.91;94247.44;4189059;28;20547;-78
2020/12/26 07:33:55;;;;;;;10.02;6.60;;;;;;;8.56;71.02;94250.38;4190133;28;20090;-79
2020/12/26 07:35:56;;;;;;;7.93;6.47;;;;;;;8.57;71.14;94239.78;4192871;28;20283;-77
2020/12/26 07:37:59;;;;;;;11.20;6.63;;;;;;;8.60;70.85;94252.56;4161725;28;20049;-77
2020/12/26 07:40:00;;;;;;;11.45;7.00;;;;;;;8.60;71.07;94255.16;4190267;28;20102;-77
2020/12/26 07:42:02;;;;;;;9.07;7.10;;;;;;;8.59;71.20;94255.31;4191433;28;20063;-78
2020/12/26 07:44:03;;;;;;;11.25;7.45;;;;;;;8.45;71.08;94256.72;4179064;28;20048;-76
2020/12/26 07:46:04;;;;;;;18.83;7.72;;;;;;;8.47;71.60;94259.19;4167152;28;20056;-79
2020/12/26 07:48:06;;;;;;;10.02;6.97;;;;;;;8.32;72.02;94246.66;4183769;28;20049;-77
2020/12/26 07:50:09;;;;;;;10.05;7.35;;;;;;;8.21;72.40;94252.16;4182671;28;20229;-70
2020/12/26 07:52:10;;;;;;;8.43;6.93;;;;;;;8.21;72.29;94260.00;4188551;28;20426;-69
2020/12/26 07:54:17;;;;;;;15.20;7.40;;;;;;;8.31;72.00;94259.91;4188906;28;20045;-68
2020/12/26 07:56:27;;;;;;;12.88;7.70;;;;;;;8.37;72.07;94254.88;4185881;28;20079;-70
2020/12/26 07:58:28;;;;;;;10.27;7.03;;;;;;;8.45;71.70;94250.69;4186367;28;20232;-69
2020/12/26 08:00:36;;;;;;;9.80;6.78;;;;;;;8.45;71.70;94243.66;4193153;28;20053;-68
2020/12/26 08:02:48;;;;;;;12.88;7.25;;;;;;;8.51;71.61;94245.66;4177849;28;20158;-70
2020/12/26 08:04:49;;;;;;;10.70;7.28;;;;;;;8.45;71.89;94256.72;4158597;28;20492;-70
2020/12/26 08:06:51;;;;;;;12.27;7.22;;;;;;;8.43;71.74;94250.81;4183653;28;20045;-70
2020/12/26 08:08:53;;;;;;;10.65;7.43;;;;;;;8.32;72.16;94245.88;4175216;28;20056;-69
2020/12/26 08:10:57;;;;;;;11.13;8.13;;;;;;;8.34;72.63;94249.13;4175951;28;20059;-67
2020/12/26 08:12:59;;;;;;;12.68;8.40;;;;;;;8.43;72.10;94261.28;4181507;28;20389;-70
2020/12/26 08:15:00;;;;;;;11.73;7.95;;;;;;;8.52;71.76;94251.72;4173225;28;20057;-69
2020/12/26 08:17:02;;;;;;;13.40;8.30;;;;;;;8.54;71.50;94237.50;4200738;28;20050;-69
2020/12/26 08:19:04;;;;;;;9.98;7.72;;;;;;;8.49;72.11;94244.97;4179793;28;20064;-81
2020/12/26 08:21:06;;;;;;;10.48;7.82;;;;;;;8.51;71.62;94250.88;4199270;28;20048;-78
2020/12/26 08:23:11;;;;;;;18.67;8.68;;;;;;;8.57;71.35;94229.34;4194164;28;20059;-76
2020/12/26 08:25:13;;;;;;;13.52;9.25;;;;;;;8.61;71.63;94240.31;4193363;28;20415;-77
2020/12/26 08:27:14;;;;;;;11.57;8.60;;;;;;;8.63;71.61;94258.44;4171643;28;20063;-79
2020/12/26 08:29:16;;;;;;;12.32;8.60;;;;;;;8.65;71.15;94246.00;4174669;28;20092;-77
2020/12/26 08:31:24;;;;;;;13.20;8.75;;;;;;;8.65;71.27;94251.25;4177023;28;20051;-79
2020/12/26 08:33:35;;;;;;;9.45;7.70;;;;;;;8.69;71.69;94256.00;4168789;28;20057;-78
2020/12/26 08:35:40;;;;;;;9.15;8.07;;;;;;;8.56;71.57;94248.63;4160241;28;20140;-77
2020/12/26 08:37:45;;;;;;;12.75;8.85;;;;;;;8.38;71.98;94246.06;4169567;28;20044;-77
2020/12/26 08:39:54;;;;;;;12.32;8.55;;;;;;;8.35;72.54;94251.59;4174769;28;20068;-79
2020/12/26 08:41:55;;;;;;;16.08;8.85;;;;;;;8.35;72.14;94262.03;4192621;28;20055;-76
2020/12/26 08:43:56;;;;;;;10.00;8.05;;;;;;;8.49;71.60;94265.88;4174424;28;20087;-80
2020/12/26 08:45:58;;;;;;;10.45;8.10;;;;;;;8.61;71.28;94255.97;4192220;28;20143;-78
2020/12/26 08:48:15;;;;;;;12.23;8.75;;;;;;;8.66;71.16;94247.66;4193311;28;20143;-77
2020/12/26 08:50:16;;;;;;;13.60;9.32;;;;;;;8.70;71.11;94249.00;4174632;28;20049;-79
2020/12/26 08:52:27;;;;;;;11.90;7.90;;;;;;;8.76;71.37;94254.41;4193474;28;20071;-77
2020/12/26 08:54:29;;;;;;;11.50;8.05;;;;;;;8.78;70.36;94257.66;4174458;28;20049;-78
2020/12/26 08:56:37;;;;;;;10.68;7.90;;;;;;;8.81;70.34;94252.09;4192274;28;20456;-77
2020/12/26 08:58:47;;;;;;;12.60;8.80;;;;;;;8.80;71.19;94234.81;4192156;28;20049;-80
2020/12/26 09:00:48;;;;;;;11.75;8.95;;;;;;;8.77;71.25;94229.91;4192969;28;20433;-77
2020/12/26 09:02:52;;;;;;;14.57;9.07;;;;;;;8.78;71.39;94247.22;4192348;28;20515;-78
2020/12/26 09:04:54;;;;;;;13.93;10.07;;;;;;;8.80;70.88;94257.50;4192793;28;20092;-78
2020/12/26 09:06:55;;;;;;;12.07;9.60;;;;;;;8.78;70.38;94235.97;4174778;28;20059;-78
2020/12/26 09:08:56;;;;;;;13.05;9.88;;;;;;;8.66;71.61;94229.38;4192931;28;20494;-78
2020/12/26 09:11:03;;;;;;;13.07;9.32;;;;;;;8.70;71.57;94241.16;4192829;28;20052;-78
2020/12/26 09:13:13;;;;;;;12.82;8.57;;;;;;;8.73;71.21;94236.44;4168506;28;20434;-80
2020/12/26 09:15:14;;;;;;;18.33;10.02;;;;;;;8.77;70.84;94244.75;4174103;28;20146;-79
2020/12/26 09:17:22;;;;;;;12.07;9.68;;;;;;;8.84;70.48;94251.00;4192340;28;20112;-79
2020/12/26 09:19:24;;;;;;;15.93;9.98;;;;;;;8.89;70.38;94246.09;4193004;28;20068;-78
2020/12/26 09:21:29;;;;;;;15.07;10.15;;;;;;;8.88;70.95;94231.38;4171446;28;20052;-76
2020/12/26 09:23:36;;;;;;;16.27;10.07;;;;;;;8.66;71.37;94224.97;4197104;28;20158;-83
2020/12/26 09:25:37;;;;;;;12.38;9.35;;;;;;;8.71;71.51;94227.09;4192388;28;20070;-79
2020/12/26 09:27:38;;;;;;;16.08;12.05;;;;;;;8.78;71.31;94228.13;4172874;28;20072;-80
2020/12/26 09:29:39;;;;;;;17.13;12.15;;;;;;;8.74;71.74;94229.41;4173902;28;20053;-81
2020/12/26 09:31:40;;;;;;;14.82;10.88;;;;;;;8.76;70.94;94228.28;4197273;28;20055;-78
2020/12/26 09:33:42;;;;;;;15.68;11.55;;;;;;;8.61;72.27;94219.41;4197315;28;20511;-77
2020/12/26 09:35:43;;;;;;;19.45;12.00;;;;;;;8.61;72.48;94228.06;4192449;28;20060;-77
2020/12/26 09:37:54;;;;;;;14.75;11.02;;;;;;;8.71;72.10;94217.50;4196840;28;20051;-79
2020/12/26 09:39:56;;;;;;;15.77;11.70;;;;;;;8.45;72.41;94220.16;4173755;28;20079;-78
2020/12/26 09:41:57;;;;;;;16.40;11.50;;;;;;;8.50;72.83;94223.16;4172359;28;20064;-79